Time;durP1;ratioP1;P1;durP2;ratioP2;P2;SDS_P1;SDS_P2;PMS_P1;PMS_P2;Temp;Humidity;BMP_temperature;BMP_pressure;BME280_temperature;BME280_humidity;BME280_pressure;Samples;Min_cycle;Max_cycle;Signal;HPM_P1;HPM_P2
2022/04/16 00:00:11;;;;;;;15.43;9.40;;;;;;;13.18;44.79;94897.41;5011162;28;20045;-76
2022/04/16 00:02:37;;;;;;;26.05;9.15;;;;;;;13.16;44.78;94901.25;4993676;28;20030;-76
2022/04/16 00:05:03;;;;;;;36.83;11.20;;;;;;;13.17;45.41;94895.78;5008412;28;20085;-76
2022/04/16 00:07:28;;;;;;;28.65;11.07;;;;;;;13.16;45.84;94888.97;4993786;28;20033;-77
2022/04/16 00:09:54;;;;;;;23.00;11.00;;;;;;;13.16;44.77;94891.59;5011275;28;20033;-77
2022/04/16 00:12:19;;;;;;;33.05;12.48;;;;;;;13.16;44.68;94886.34;5009735;28;20095;-77
2022/04/16 00:14:45;;;;;;;20.55;10.68;;;;;;;13.15;44.43;94894.44;5009190;28;20037;-77
2022/04/16 00:17:10;;;;;;;32.65;9.43;;;;;;;13.16;44.30;94891.59;5010928;28;20386;-76
2022/04/16 00:19:36;;;;;;;33.95;9.77;;;;;;;13.15;45.17;94895.22;5011022;28;20494;-77
2022/04/16 00:22:07;;;;;;;32.25;10.52;;;;;;;13.11;45.43;94894.16;5010896;28;20036;-77
2022/04/16 00:24:33;;;;;;;34.45;13.07;;;;;;;13.11;46.18;94895.97;5009664;28;20061;-77
2022/04/16 00:26:58;;;;;;;35.22;14.60;;;;;;;13.02;46.22;94900.84;5001325;28;20397;-76
2022/04/16 00:29:24;;;;;;;45.03;14.15;;;;;;;12.94;46.38;94901.28;5010740;28;20149;-77
2022/04/16 00:31:49;;;;;;;29.25;13.60;;;;;;;12.87;46.30;94890.25;4992963;28;20079;-77
2022/04/16 00:34:14;;;;;;;32.55;14.32;;;;;;;12.84;46.57;94890.69;5009136;28;20429;-76
2022/04/16 00:36:44;;;;;;;29.02;14.55;;;;;;;12.81;46.61;94888.59;5010620;28;20030;-76
2022/04/16 00:39:10;;;;;;;27.58;11.50;;;;;;;12.77;46.21;94890.09;4993086;28;20040;-77
2022/04/16 00:41:36;;;;;;;21.17;10.68;;;;;;;12.76;46.05;94885.91;5025146;28;20030;-77
2022/04/16 00:44:01;;;;;;;27.02;12.48;;;;;;;12.71;46.71;94893.69;4992900;28;20478;-77
2022/04/16 00:46:27;;;;;;;40.25;14.32;;;;;;;12.69;47.38;94875.69;5009240;28;20479;-76
2022/04/16 00:48:52;;;;;;;31.92;12.93;;;;;;;12.67;47.57;94882.16;5009092;28;20040;-77
2022/04/16 00:51:18;;;;;;;31.25;12.60;;;;;;;12.62;47.30;94890.72;5010394;28;20045;-76
2022/04/16 00:53:43;;;;;;;17.52;9.85;;;;;;;12.65;46.33;94886.81;4992648;28;20029;-77
2022/04/16 00:56:10;;;;;;;18.42;9.52;;;;;;;12.69;45.91;94880.09;4992846;28;20078;-77
2022/04/16 00:58:39;;;;;;;22.10;11.85;;;;;;;12.68;46.91;94878.50;5008069;28;20038;-76
2022/04/16 01:01:05;;;;;;;27.65;11.75;;;;;;;12.64;47.25;94878.22;5008844;28;20038;-76
2022/04/16 01:03:30;;;;;;;22.55;12.07;;;;;;;12.60;47.06;94883.13;5008961;28;20033;-76
2022/04/16 01:05:56;;;;;;;28.45;11.68;;;;;;;12.55;46.65;94885.69;5010487;28;20030;-77
2022/04/16 01:08:22;;;;;;;24.48;11.43;;;;;;;12.50;47.36;94882.19;5011038;28;20030;-76
2022/04/16 01:10:47;;;;;;;30.75;11.52;;;;;;;12.41;47.46;94897.50;5009027;28;20030;-76
2022/04/16 01:13:13;;;;;;;27.80;9.90;;;;;;;12.32;47.98;94901.53;5010037;28;20022;-76
2022/04/16 01:15:39;;;;;;;15.02;6.88;;;;;;;12.30;46.60;94893.16;5009917;28;20041;-77
2022/04/16 01:18:05;;;;;;;8.68;6.47;;;;;;;12.28;46.89;94890.78;5008556;28;20026;-77
2022/04/16 01:20:35;;;;;;;14.85;7.53;;;;;;;12.28;47.34;94892.63;5008734;28;20025;-77
2022/04/16 01:23:01;;;;;;;18.45;7.93;;;;;;;12.23;47.44;94887.34;5008812;28;20052;-77
2022/04/16 01:25:27;;;;;;;23.85;9.00;;;;;;;12.17;47.52;94888.28;5008694;28;20069;-76
2022/04/16 01:27:53;;;;;;;19.27;9.38;;;;;;;12.15;47.98;94885.91;5008720;28;20038;-76
2022/04/16 01:30:20;;;;;;;24.65;9.50;;;;;;;12.13;48.15;94876.75;4991524;28;20088;-77
2022/04/16 01:32:48;;;;;;;20.10;8.15;;;;;;;12.10;48.48;94893.66;4992187;28;20045;-77
2022/04/16 01:35:14;;;;;;;14.90;7.68;;;;;;;12.05;48.72;94890.22;4992577;28;20034;-77
2022/04/16 01:37:39;;;;;;;17.10;9.18;;;;;;;11.99;48.56;94895.31;4992196;28;20030;-77
2022/04/16 01:40:06;;;;;;;19.73;10.48;;;;;;;11.93;48.97;94901.50;5009663;28;20030;-77
2022/04/16 01:42:32;;;;;;;33.53;10.70;;;;;;;11.90;49.09;94903.78;4992200;28;20121;-77
2022/04/16 01:45:05;;;;;;;20.70;9.35;;;;;;;11.91;48.94;94902.75;5008107;28;20049;-77
2022/04/16 01:47:31;;;;;;;22.90;11.80;;;;;;;11.89;49.53;94897.78;5007251;28;20041;-77
2022/04/16 01:49:56;;;;;;;35.55;13.05;;;;;;;11.90;49.09;94895.97;4991720;28;20030;-77
2022/04/16 01:52:25;;;;;;;26.65;12.95;;;;;;;11.82;49.72;94891.94;5008055;28;20034;-76
2022/04/16 01:55:02;;;;;;;36.80;12.35;;;;;;;11.82;49.34;94891.94;5008806;28;20029;-77
2022/04/16 01:57:30;;;;;;;33.45;13.75;;;;;;;11.79;49.55;94897.63;5006324;28;20128;-77
2022/04/16 01:59:56;;;;;;;27.23;11.52;;;;;;;11.78;49.08;94890.81;5009706;28;20088;-76
2022/04/16 02:02:21;;;;;;;23.52;10.13;;;;;;;11.73;48.68;94888.91;5009607;28;20078;-76
2022/04/16 02:04:47;;;;;;;26.20;10.60;;;;;;;11.70;48.16;94888.59;4991682;28;20029;-76
2022/04/16 02:07:13;;;;;;;38.83;14.38;;;;;;;11.67;48.85;94883.84;4991858;28;20030;-76
2022/04/16 02:09:39;;;;;;;19.75;10.52;;;;;;;11.68;48.64;94883.59;5007859;28;20064;-76
2022/04/16 02:12:05;;;;;;;34.33;10.35;;;;;;;11.71;48.59;94890.97;5007939;28;20022;-76
2022/04/16 02:14:30;;;;;;;31.95;11.65;;;;;;;11.73;48.35;94893.34;5009137;28;20050;-77
2022/04/16 02:16:57;;;;;;;66.03;34.47;;;;;;;11.69;49.15;94897.41;5008808;28;20029;-77
2022/04/16 02:19:23;;;;;;;118.05;66.80;;;;;;;11.64;49.38;94892.13;5010746;28;20164;-77
2022/04/16 02:21:49;;;;;;;92.30;49.72;;;;;;;11.60;49.59;94891.03;5011513;28;20033;-77
2022/04/16 02:24:17;;;;;;;60.65;33.05;;;;;;;11.50;49.79;94888.25;5012060;28;20037;-77
2022/04/16 02:26:43;;;;;;;51.30;24.33;;;;;;;11.50;49.48;94888.25;5012925;28;20484;-77
2022/04/16 02:29:09;;;;;;;49.72;21.88;;;;;;;11.46;49.66;94876.75;5012868;28;20036;-77
2022/04/16 02:31:37;;;;;;;46.75;27.10;;;;;;;11.38;49.95;94886.50;5012859;28;20025;-77
2022/04/16 02:34:05;;;;;;;58.58;26.60;;;;;;;11.35;49.96;94879.16;4995472;28;20485;-77
2022/04/16 02:36:33;;;;;;;66.13;26.30;;;;;;;11.34;50.55;94882.78;5011539;28;20139;-77
2022/04/16 02:38:59;;;;;;;39.60;21.23;;;;;;;11.32;50.22;94879.63;5011395;28;20436;-77
2022/04/16 02:41:25;;;;;;;47.53;24.20;;;;;;;11.23;50.50;94883.66;5012479;28;20057;-77
2022/04/16 02:43:50;;;;;;;58.25;27.85;;;;;;;11.21;50.29;94880.47;5011926;28;20057;-77
2022/04/16 02:49:02;;;;;;;60.47;26.10;;;;;;;11.12;50.68;94881.88;5012536;28;20278;-77
2022/04/16 02:51:27;;;;;;;64.70;24.42;;;;;;;11.04;50.90;94882.25;5010930;28;20465;-77
2022/04/16 02:53:53;;;;;;;29.85;17.50;;;;;;;11.03;50.66;94884.06;4994471;28;20608;-77
2022/04/16 02:56:19;;;;;;;33.42;17.65;;;;;;;11.03;50.71;94881.44;5011006;28;20030;-77
2022/04/16 02:58:44;;;;;;;42.00;15.70;;;;;;;11.08;50.28;94881.56;5009998;28;20406;-77
2022/04/16 03:01:10;;;;;;;28.63;15.25;;;;;;;11.09;50.10;94882.34;4978301;28;20513;-77
2022/04/16 03:03:35;;;;;;;38.58;14.65;;;;;;;11.08;50.08;94891.97;5011996;28;20026;-77
2022/04/16 03:06:00;;;;;;;54.08;16.83;;;;;;;11.12;50.04;94897.50;5010777;28;20049;-77
2022/04/16 03:08:26;;;;;;;31.42;13.00;;;;;;;11.12;50.10;94897.50;5012020;28;20141;-77
2022/04/16 03:10:52;;;;;;;25.98;12.02;;;;;;;11.14;49.92;94900.66;5010564;28;20034;-77
2022/04/16 03:13:18;;;;;;;28.08;11.52;;;;;;;11.08;49.84;94896.38;5010469;28;20041;-77
2022/04/16 03:18:27;;;;;;;51.63;17.67;;;;;;;11.04;50.23;94892.66;4996938;28;20048;-77
2022/04/16 03:20:54;;;;;;;66.18;22.80;;;;;;;11.00;51.00;94894.16;5010390;28;20018;-77
2022/04/16 03:23:19;;;;;;;73.60;24.83;;;;;;;10.91;51.70;94896.34;5010615;28;20038;-77
2022/04/16 03:25:45;;;;;;;75.80;28.02;;;;;;;10.88;51.85;94890.78;4993381;28;20382;-77
2022/04/16 03:28:10;;;;;;;68.10;32.38;;;;;;;10.89;51.72;94887.16;5010970;28;20030;-77
2022/04/16 03:30:36;;;;;;;53.35;25.52;;;;;;;10.83;50.99;94900.06;5010930;28;20485;-77
2022/04/16 03:33:01;;;;;;;62.83;30.60;;;;;;;10.83;51.42;94897.47;5011628;28;20037;-77
2022/04/16 03:35:27;;;;;;;77.07;32.40;;;;;;;10.80;51.31;94900.53;5010981;28;20076;-77
2022/04/16 03:37:53;;;;;;;73.47;29.00;;;;;;;10.79;51.83;94905.97;5010246;28;20038;-76
2022/04/16 03:40:19;;;;;;;68.75;20.02;;;;;;;10.75;51.90;94918.66;4993679;28;20069;-77
2022/04/16 03:42:50;;;;;;;44.47;18.15;;;;;;;10.66;51.35;94925.22;5010128;28;20025;-76
2022/04/16 03:45:20;;;;;;;56.20;21.58;;;;;;;10.65;51.58;94926.25;4993966;28;20046;-76
2022/04/16 03:47:46;;;;;;;54.45;19.83;;;;;;;10.62;51.94;94928.53;4994024;28;20026;-76
2022/04/16 03:50:12;;;;;;;47.80;21.27;;;;;;;10.55;51.82;94936.41;5009925;28;20034;-76
2022/04/16 03:52:41;;;;;;;56.30;22.58;;;;;;;10.59;51.95;94934.97;5011431;28;20419;-76
2022/04/16 04:00:55;;;;;;;74.40;38.75;;;;;;;10.80;52.01;94934.34;4948844;28;20127;-77
2022/04/16 04:03:21;;;;;;;83.10;39.60;;;;;;;10.95;51.30;94944.28;5000818;28;20045;-76
2022/04/16 04:05:48;;;;;;;71.93;30.33;;;;;;;11.14;50.60;94947.50;4993484;28;20029;-76
2022/04/16 04:08:14;;;;;;;74.63;36.92;;;;;;;11.32;50.09;94955.13;5009807;28;20112;-76
2022/04/16 04:10:39;;;;;;;75.43;30.67;;;;;;;11.57;49.86;94956.63;4992853;28;20113;-77
2022/04/16 04:13:05;;;;;;;75.60;34.28;;;;;;;11.88;48.98;94958.75;5009590;28;20152;-77
2022/04/16 04:15:30;;;;;;;74.72;33.35;;;;;;;12.25;47.96;94960.88;5009679;28;20034;-77
2022/04/16 04:17:56;;;;;;;64.10;31.60;;;;;;;12.75;46.57;94962.63;4993705;28;20482;-77
2022/04/16 04:20:22;;;;;;;44.85;21.52;;;;;;;13.43;45.04;94953.53;4993420;28;20192;-77
2022/04/16 04:22:47;;;;;;;43.13;22.80;;;;;;;14.21;43.00;94949.53;5010684;28;20061;-77
2022/04/16 04:25:13;;;;;;;52.03;23.42;;;;;;;15.18;40.68;94952.69;5009555;28;20064;-77
2022/04/16 04:27:38;;;;;;;45.10;24.13;;;;;;;15.86;38.68;94953.41;5010712;28;20041;-77
2022/04/16 04:30:04;;;;;;;27.60;9.38;;;;;;;16.68;36.56;94949.72;5010769;28;20113;-77
2022/04/16 04:32:30;;;;;;;25.70;6.22;;;;;;;17.40;34.52;94945.75;5010392;28;20034;-78
2022/04/16 04:34:55;;;;;;;12.45;5.18;;;;;;;18.05;32.77;94944.88;4993432;28;20110;-77
2022/04/16 04:37:21;;;;;;;9.90;6.13;;;;;;;18.81;31.76;94936.31;5009482;28;20034;-77
2022/04/16 04:39:46;;;;;;;14.52;5.95;;;;;;;19.50;30.61;94948.91;5008544;28;20033;-77
2022/04/16 04:42:11;;;;;;;17.92;6.93;;;;;;;20.30;29.90;94945.41;4993983;28;20038;-77
2022/04/16 04:44:37;;;;;;;17.48;7.05;;;;;;;21.19;29.16;94949.66;5012588;28;20038;-78
2022/04/16 04:47:03;;;;;;;15.45;6.63;;;;;;;22.02;27.50;94943.13;4994405;28;20073;-78
2022/04/16 04:49:28;;;;;;;13.68;6.60;;;;;;;22.86;26.16;94947.72;5011386;28;20386;-78
2022/04/16 04:51:53;;;;;;;23.98;7.60;;;;;;;23.41;25.55;94944.63;5010336;28;20469;-78
2022/04/16 04:54:19;;;;;;;30.15;8.15;;;;;;;24.15;24.86;94951.75;5009363;28;20456;-76
2022/04/16 04:56:45;;;;;;;34.53;9.15;;;;;;;24.88;23.45;94939.25;5010080;28;20460;-78
2022/04/16 04:59:10;;;;;;;32.80;7.88;;;;;;;25.21;23.43;94947.44;5009793;28;20582;-77
2022/04/16 05:01:36;;;;;;;23.05;8.63;;;;;;;25.71;22.45;94947.50;5009588;28;20856;-77
2022/04/16 05:04:01;;;;;;;20.17;8.50;;;;;;;26.16;21.74;94949.50;5010619;28;20077;-77
2022/04/16 05:06:27;;;;;;;22.85;8.13;;;;;;;26.63;21.59;94951.91;5010850;28;20044;-77
2022/04/16 05:08:52;;;;;;;24.35;8.50;;;;;;;27.14;20.95;94944.44;5009468;28;20127;-78
2022/04/16 05:11:18;;;;;;;24.33;9.20;;;;;;;27.58;20.76;94945.44;5009779;28;20080;-77
2022/04/16 05:13:43;;;;;;;34.13;9.63;;;;;;;28.21;19.99;94948.41;5011824;28;20092;-77
2022/04/16 05:16:12;;;;;;;21.40;7.88;;;;;;;28.65;18.97;94946.56;5010647;28;20038;-77
2022/04/16 05:18:37;;;;;;;28.00;8.82;;;;;;;29.46;18.71;94946.28;5009441;28;20026;-78
2022/04/16 05:21:03;;;;;;;34.72;8.38;;;;;;;29.96;18.16;94936.63;5010198;28;20041;-78
2022/04/16 05:23:28;;;;;;;26.95;8.57;;;;;;;30.31;17.27;94940.03;5011393;28;20034;-78
2022/04/16 05:25:54;;;;;;;35.20;8.73;;;;;;;30.71;17.03;94933.50;5012313;28;20048;-77
2022/04/16 05:28:19;;;;;;;18.13;7.32;;;;;;;30.97;16.35;94935.50;4995301;28;20045;-77
2022/04/16 05:30:54;;;;;;;24.38;6.82;;;;;;;31.30;15.27;94921.44;5019339;28;20092;-78
2022/04/16 05:36:04;;;;;;;23.40;8.20;;;;;;;32.26;14.80;94922.75;4997193;28;20405;-78
2022/04/16 05:38:30;;;;;;;23.08;8.18;;;;;;;32.80;13.66;94926.78;4994108;28;20026;-78
2022/04/16 05:40:55;;;;;;;33.67;9.02;;;;;;;33.32;13.73;94922.22;5012181;28;20055;-76
2022/04/16 05:43:21;;;;;;;15.43;7.38;;;;;;;33.27;12.85;94926.03;4994407;28;20034;-78
2022/04/16 05:45:46;;;;;;;15.40;6.07;;;;;;;33.35;12.86;94935.75;5008744;28;20485;-77
2022/04/16 05:48:12;;;;;;;18.10;5.63;;;;;;;33.07;12.17;94924.75;5011193;28;20513;-77
2022/04/16 05:50:37;;;;;;;15.93;4.43;;;;;;;33.17;12.30;94926.72;4996755;28;20117;-78
2022/04/16 05:53:05;;;;;;;15.85;4.25;;;;;;;32.93;12.52;94928.09;5009396;28;20034;-77
2022/04/16 05:55:31;;;;;;;19.50;4.57;;;;;;;32.58;12.44;94927.72;5008611;28;20037;-77
2022/04/16 05:57:56;;;;;;;15.80;4.30;;;;;;;32.39;12.19;94923.31;5009638;28;20034;-77
2022/04/16 06:00:22;;;;;;;8.02;3.95;;;;;;;32.52;12.74;94925.34;5009547;28;20045;-75
2022/04/16 06:02:47;;;;;;;14.18;4.32;;;;;;;32.29;13.02;94915.88;5008208;28;20030;-75
2022/04/16 06:05:13;;;;;;;9.80;3.72;;;;;;;31.95;12.60;94918.53;5007921;28;20100;-76
2022/04/16 06:07:38;;;;;;;22.80;3.97;;;;;;;31.38;13.16;94911.56;5008769;28;20021;-76
2022/04/16 06:10:04;;;;;;;19.92;4.15;;;;;;;30.76;13.99;94922.50;5009039;28;20038;-77
2022/04/16 06:12:30;;;;;;;12.30;4.78;;;;;;;30.29;14.05;94923.53;5007649;28;20049;-77
2022/04/16 06:14:55;;;;;;;15.70;4.55;;;;;;;30.09;14.36;94921.97;5009169;28;20034;-77
2022/04/16 06:17:21;;;;;;;9.07;3.88;;;;;;;29.43;15.07;94923.59;5009324;28;20536;-75
2022/04/16 06:19:46;;;;;;;7.53;4.80;;;;;;;28.68;15.64;94916.44;5009021;28;20397;-76
2022/04/16 06:22:12;;;;;;;16.30;4.85;;;;;;;27.94;15.94;94922.44;5007911;28;20029;-76
2022/04/16 06:24:41;;;;;;;29.10;4.80;;;;;;;26.99;16.72;94921.03;4992421;28;20077;-76
2022/04/16 06:27:07;;;;;;;8.93;4.30;;;;;;;26.47;17.39;94926.97;5008195;28;20030;-78
2022/04/16 06:29:32;;;;;;;9.65;5.15;;;;;;;25.94;19.47;94925.84;5007539;28;20164;-77
2022/04/16 06:31:58;;;;;;;14.98;4.80;;;;;;;25.38;20.69;94930.59;5009374;28;20034;-77
2022/04/16 06:34:24;;;;;;;17.83;5.13;;;;;;;24.98;20.46;94922.16;4991984;28;20037;-77
2022/04/16 06:36:50;;;;;;;10.27;5.25;;;;;;;24.65;20.86;94921.97;5007190;28;20085;-78
2022/04/16 06:39:15;;;;;;;17.08;5.63;;;;;;;24.30;20.75;94923.94;5010502;28;20374;-79
2022/04/16 06:41:41;;;;;;;10.55;5.00;;;;;;;24.32;21.37;94919.88;5008463;28;20026;-77
2022/04/16 06:44:06;;;;;;;13.02;5.45;;;;;;;24.34;21.54;94915.00;5010377;28;20042;-77
2022/04/16 06:46:32;;;;;;;13.93;5.63;;;;;;;24.15;21.72;94917.22;5008961;28;20032;-78
2022/04/16 06:48:58;;;;;;;10.27;5.95;;;;;;;23.97;21.14;94907.69;5014106;28;20030;-78
2022/04/16 06:51:23;;;;;;;8.60;5.65;;;;;;;23.63;21.98;94920.66;5017397;28;20034;-77
2022/04/16 06:53:49;;;;;;;18.92;6.22;;;;;;;23.24;22.98;94915.41;5013304;28;20033;-76
2022/04/16 06:56:14;;;;;;;14.48;5.10;;;;;;;22.97;22.65;94921.75;5001239;28;20030;-82
2022/04/16 06:58:40;;;;;;;12.27;5.68;;;;;;;23.06;22.74;94930.50;5001154;28;20418;-81
2022/04/16 07:01:06;;;;;;;16.02;6.32;;;;;;;23.34;22.99;94915.91;5020939;28;20037;-79
2022/04/16 07:03:31;;;;;;;19.70;6.75;;;;;;;23.40;22.78;94916.53;5025166;28;20052;-81
2022/04/16 07:05:56;;;;;;;11.35;6.07;;;;;;;23.31;22.68;94916.53;5023418;28;20037;-80
2022/04/16 07:08:22;;;;;;;14.85;6.32;;;;;;;23.30;22.40;94917.63;5016470;28;20034;-77
2022/04/16 07:10:48;;;;;;;15.35;6.00;;;;;;;23.42;22.78;94905.59;5015398;28;20034;-78
2022/04/16 07:13:13;;;;;;;16.30;6.35;;;;;;;23.55;22.34;94912.66;5016195;28;20038;-78
2022/04/16 07:15:39;;;;;;;16.45;6.07;;;;;;;23.30;22.50;94909.66;5011525;28;20045;-77
2022/04/16 07:18:04;;;;;;;10.48;5.85;;;;;;;22.85;23.08;94910.94;5011464;28;20029;-78
2022/04/16 07:20:30;;;;;;;10.23;5.60;;;;;;;22.80;23.35;94924.28;5016349;28;20528;-80
2022/04/16 07:22:55;;;;;;;14.75;5.88;;;;;;;22.60;23.63;94902.50;5021935;28;20048;-80
2022/04/16 07:25:21;;;;;;;9.88;5.78;;;;;;;22.46;23.53;94912.44;5016769;28;20617;-80
2022/04/16 07:27:47;;;;;;;22.60;6.72;;;;;;;22.27;24.38;94914.50;5001885;28;20041;-80
2022/04/16 07:30:13;;;;;;;18.00;6.95;;;;;;;22.14;24.41;94911.63;5016952;28;20034;-80
2022/04/16 07:32:39;;;;;;;15.38;6.93;;;;;;;22.01;24.93;94906.38;5018305;28;20500;-79
2022/04/16 07:35:08;;;;;;;23.33;6.70;;;;;;;21.79;25.35;94902.59;5001295;28;20026;-81
2022/04/16 07:37:33;;;;;;;11.50;6.10;;;;;;;21.65;25.32;94909.84;5002291;28;20041;-81
2022/04/16 07:39:59;;;;;;;22.70;7.95;;;;;;;21.54;25.94;94903.97;5001073;28;20616;-81
2022/04/16 07:42:27;;;;;;;16.10;6.53;;;;;;;21.43;26.02;94907.91;5017313;28;20045;-80
2022/04/16 07:44:54;;;;;;;29.63;6.07;;;;;;;21.32;26.07;94911.88;5001349;28;20481;-80
2022/04/16 07:47:19;;;;;;;15.25;7.65;;;;;;;21.31;26.24;94912.91;5016205;28;20682;-80
2022/04/16 07:49:45;;;;;;;23.42;8.15;;;;;;;21.16;26.52;94907.94;5018120;28;20034;-81
2022/04/16 07:52:10;;;;;;;17.92;6.53;;;;;;;21.07;26.71;94893.84;5017203;28;20036;-80
2022/04/16 07:54:37;;;;;;;14.27;6.10;;;;;;;21.15;26.66;94901.88;5001693;28;20033;-80
2022/04/16 07:57:04;;;;;;;15.55;6.72;;;;;;;21.20;26.65;94903.63;5017913;28;20113;-79
2022/04/16 07:59:30;;;;;;;18.17;6.25;;;;;;;21.15;27.03;94895.78;5001880;28;20129;-80
2022/04/16 08:01:55;;;;;;;15.20;6.20;;;;;;;21.23;26.71;94898.50;5016928;28;20452;-79
2022/04/16 08:04:24;;;;;;;11.52;5.45;;;;;;;21.16;26.67;94892.06;5017306;28;20060;-79
2022/04/16 08:06:50;;;;;;;12.07;5.20;;;;;;;21.24;26.99;94888.72;5000660;28;20040;-81
2022/04/16 08:09:19;;;;;;;27.13;7.75;;;;;;;21.39;26.98;94880.50;5001326;28;20034;-81
2022/04/16 08:11:46;;;;;;;24.20;5.65;;;;;;;21.53;26.33;94886.53;5016214;28;20133;-80
2022/04/16 08:14:12;;;;;;;15.70;5.97;;;;;;;21.64;26.32;94875.69;5017150;28;20065;-81
2022/04/16 08:16:38;;;;;;;11.75;6.28;;;;;;;21.79;25.91;94876.13;4999577;28;20088;-81
2022/04/16 08:19:03;;;;;;;10.45;5.82;;;;;;;21.80;26.14;94876.91;4999076;28;20041;-80
2022/04/16 08:21:34;;;;;;;21.92;5.70;;;;;;;21.85;26.07;94879.47;5016397;28;20497;-80
2022/04/16 08:26:44;;;;;;;17.05;5.57;;;;;;;22.16;25.62;94869.72;5002059;28;20033;-80
2022/04/16 08:29:09;;;;;;;14.55;5.72;;;;;;;22.36;25.43;94857.06;4982700;28;20601;-80
2022/04/16 08:31:35;;;;;;;17.35;5.78;;;;;;;22.40;24.26;94850.06;5015973;28;20084;-80
2022/04/16 08:34:00;;;;;;;10.65;5.53;;;;;;;22.42;23.71;94847.88;5015528;28;20111;-80
2022/04/16 08:36:26;;;;;;;23.20;5.63;;;;;;;22.48;24.52;94851.97;5016754;28;20519;-80
2022/04/16 08:38:52;;;;;;;14.18;5.28;;;;;;;22.39;24.53;94845.84;5016268;28;20037;-81
2022/04/16 08:41:17;;;;;;;13.82;5.60;;;;;;;22.48;25.02;94838.72;5016501;28;20026;-80
2022/04/16 08:43:43;;;;;;;19.35;5.60;;;;;;;22.59;24.61;94847.94;5015919;28;20060;-80
2022/04/16 08:46:08;;;;;;;15.05;5.82;;;;;;;22.69;24.48;94837.06;5015633;28;20029;-80
2022/04/16 08:48:34;;;;;;;16.27;5.35;;;;;;;22.77;24.97;94833.66;5000265;28;20033;-80
2022/04/16 08:51:00;;;;;;;12.70;5.30;;;;;;;22.89;24.88;94832.31;4998221;28;20030;-80
2022/04/16 08:53:25;;;;;;;8.25;5.50;;;;;;;22.90;24.95;94832.00;5016441;28;20109;-80
2022/04/16 08:55:51;;;;;;;11.48;5.18;;;;;;;22.98;24.38;94830.47;5016316;28;20022;-80
2022/04/16 08:58:17;;;;;;;8.60;5.43;;;;;;;23.10;23.73;94816.59;5000303;28;20037;-80
2022/04/16 09:00:42;;;;;;;32.20;4.82;;;;;;;23.09;23.24;94813.16;4999349;28;20069;-80
2022/04/16 09:03:09;;;;;;;15.55;4.50;;;;;;;23.14;23.62;94815.69;5017527;28;20489;-80
2022/04/16 09:05:34;;;;;;;11.75;4.63;;;;;;;23.23;23.77;94805.84;4998350;28;20057;-80
2022/04/16 09:08:02;;;;;;;12.80;5.05;;;;;;;23.35;23.51;94813.97;5015150;28;20048;-80
2022/04/16 09:10:28;;;;;;;13.77;5.38;;;;;;;23.51;22.94;94813.50;4997090;28;20026;-79
2022/04/16 09:12:55;;;;;;;11.27;4.55;;;;;;;23.59;23.22;94799.47;4997130;28;20579;-79
2022/04/16 09:15:21;;;;;;;11.43;5.65;;;;;;;23.67;23.33;94811.19;4996332;28;20030;-80
2022/04/16 09:18:02;;;;;;;18.23;5.38;;;;;;;23.81;24.14;94815.22;5014059;28;20413;-80
2022/04/16 09:23:16;;;;;;;17.35;5.38;;;;;;;23.86;23.84;94799.13;5014209;28;20076;-81
2022/04/16 09:25:42;;;;;;;12.93;4.57;;;;;;;23.65;22.41;94799.00;4996679;28;20109;-81
2022/04/16 09:28:08;;;;;;;7.97;4.85;;;;;;;23.50;22.89;94796.03;4996609;28;20072;-81
2022/04/16 09:30:34;;;;;;;12.65;5.28;;;;;;;23.50;23.42;94796.03;4979363;28;20038;-81
2022/04/16 09:33:00;;;;;;;14.52;5.25;;;;;;;23.56;23.32;94800.06;4996446;28;20323;-81
2022/04/16 09:35:27;;;;;;;13.70;5.35;;;;;;;23.51;22.95;94795.69;4978529;28;20065;-81
2022/04/16 09:37:56;;;;;;;7.85;4.43;;;;;;;23.54;23.11;94788.97;4994319;28;20093;-81
2022/04/16 09:40:29;;;;;;;16.55;4.68;;;;;;;23.43;23.25;94785.06;4993148;28;20065;-81
2022/04/16 09:42:56;;;;;;;12.60;4.90;;;;;;;23.39;23.02;94784.16;4977721;28;20033;-80
2022/04/16 09:45:21;;;;;;;11.60;4.72;;;;;;;23.44;22.73;94781.34;4978273;28;20058;-81
2022/04/16 09:47:48;;;;;;;13.63;4.85;;;;;;;23.50;23.13;94774.78;4979832;28;20073;-80
2022/04/16 09:50:14;;;;;;;14.30;4.50;;;;;;;23.54;23.21;94781.03;4996020;28;20437;-80
2022/04/16 09:52:39;;;;;;;11.98;4.78;;;;;;;23.48;23.71;94771.66;4995786;28;20033;-80
2022/04/16 09:55:05;;;;;;;11.57;4.13;;;;;;;23.50;23.52;94780.09;4980125;28;20088;-80
2022/04/16 09:57:31;;;;;;;16.60;4.43;;;;;;;23.63;23.90;94779.19;4980396;28;20038;-80
2022/04/16 09:59:56;;;;;;;11.98;4.50;;;;;;;23.71;23.30;94780.25;4980380;28;20038;-80
2022/04/16 10:02:22;;;;;;;16.13;4.10;;;;;;;23.67;23.04;94771.34;4980499;28;20046;-81
2022/04/16 10:04:47;;;;;;;11.80;4.35;;;;;;;23.68;22.93;94776.34;4995620;28;20057;-81
2022/04/16 10:07:13;;;;;;;11.02;4.80;;;;;;;23.87;23.57;94774.13;4996973;28;20026;-80
2022/04/16 10:09:41;;;;;;;16.75;4.95;;;;;;;24.04;23.21;94772.50;4995226;28;20034;-81
2022/04/16 10:14:49;;;;;;;9.48;4.20;;;;;;;24.13;22.72;94760.00;4997019;28;20096;-80
2022/04/16 10:17:14;;;;;;;8.38;4.22;;;;;;;24.05;22.44;94761.56;4998136;28;20030;-80
2022/04/16 10:19:40;;;;;;;5.82;4.30;;;;;;;23.96;22.34;94766.16;4996166;28;20052;-81
2022/04/16 10:22:25;;;;;;;8.65;5.13;;;;;;;23.95;22.12;94768.03;4978617;28;20031;-81
2022/04/16 10:24:53;;;;;;;10.88;4.40;;;;;;;24.06;22.36;94765.78;4994773;28;20057;-81
2022/04/16 10:27:23;;;;;;;10.48;5.00;;;;;;;24.20;22.19;94754.94;4995704;28;20039;-81
2022/04/16 10:29:49;;;;;;;9.23;4.32;;;;;;;24.38;21.86;94751.16;4994397;28;20062;-81
2022/04/16 10:32:16;;;;;;;11.73;4.60;;;;;;;24.48;21.42;94758.78;4978645;28;20037;-81
2022/04/16 10:34:42;;;;;;;9.55;4.68;;;;;;;24.49;21.47;94755.00;4996302;28;20038;-81
2022/04/16 10:37:08;;;;;;;13.05;4.75;;;;;;;24.54;21.51;94748.72;4996462;28;20034;-80
2022/04/16 10:39:35;;;;;;;7.78;4.13;;;;;;;24.52;21.62;94750.94;4987558;28;20022;-80
2022/04/16 10:42:02;;;;;;;11.18;4.43;;;;;;;24.49;21.83;94746.25;4988304;28;20072;-80
2022/04/16 10:44:29;;;;;;;9.45;3.97;;;;;;;24.40;21.95;94743.63;4987517;28;20042;-81
2022/04/16 10:46:55;;;;;;;8.88;4.18;;;;;;;24.46;21.70;94744.25;4997697;28;20068;-81
2022/04/16 10:49:25;;;;;;;9.43;4.63;;;;;;;24.15;21.83;94747.16;4998398;28;20069;-81
2022/04/16 10:51:56;;;;;;;17.67;4.53;;;;;;;23.98;22.06;94744.56;4998518;28;20034;-81
2022/04/16 10:54:34;;;;;;;7.05;4.28;;;;;;;24.20;22.11;94736.34;4997428;28;20082;-81
2022/04/16 10:57:00;;;;;;;9.40;4.20;;;;;;;24.42;22.24;94738.78;4997813;28;20049;-81
2022/04/16 10:59:57;;;;;;;15.95;4.50;;;;;;;24.54;21.84;94730.88;4982540;28;20102;-81
2022/04/16 11:02:27;;;;;;;11.93;4.30;;;;;;;24.60;21.95;94736.81;4969635;28;20065;-81
2022/04/16 11:05:00;;;;;;;12.93;4.07;;;;;;;24.70;21.68;94735.66;4980992;28;20395;-81
2022/04/16 11:07:27;;;;;;;6.55;3.63;;;;;;;24.85;21.51;94717.25;4998881;28;20141;-81
2022/04/16 11:09:52;;;;;;;10.05;4.20;;;;;;;25.05;21.74;94723.69;4981909;28;20448;-81
2022/04/16 11:12:21;;;;;;;9.52;4.45;;;;;;;24.94;21.50;94721.75;4982029;28;20046;-81
2022/04/16 11:14:50;;;;;;;14.55;4.05;;;;;;;24.62;21.56;94731.19;5054565;23;20089;-81
2022/04/16 11:17:16;;;;;;;7.82;4.72;;;;;;;24.25;22.11;94720.25;5009564;28;20510;-81
2022/04/16 11:19:44;;;;;;;5.47;4.20;;;;;;;24.07;22.62;94724.06;5008669;28;20028;-79
2022/04/16 11:22:09;;;;;;;8.13;4.38;;;;;;;23.85;22.67;94722.44;4993490;28;20041;-81
2022/04/16 11:35:25;;;;;;;8.88;4.00;;;;;;;24.31;22.60;94711.03;4998307;28;20414;-81
2022/04/16 11:37:54;;;;;;;9.13;4.07;;;;;;;24.42;22.48;94709.56;4980907;28;20113;-80
2022/04/16 11:40:20;;;;;;;6.78;3.83;;;;;;;24.52;22.67;94703.06;4981041;28;20154;-80
2022/04/16 11:42:45;;;;;;;6.63;4.30;;;;;;;24.23;22.24;94701.94;4997664;28;20510;-81
2022/04/16 11:45:11;;;;;;;7.45;3.60;;;;;;;24.09;22.27;94697.97;4997720;28;20023;-81
2022/04/16 11:47:37;;;;;;;10.02;4.00;;;;;;;24.19;22.54;94692.28;4997669;28;20031;-80
2022/04/16 11:50:05;;;;;;;13.35;4.07;;;;;;;23.69;23.08;94692.94;4980932;28;20121;-80
2022/04/16 11:52:34;;;;;;;6.72;3.58;;;;;;;23.54;23.40;94693.44;4998779;28;20050;-80